sensor_id;sensor_type;location;lat;lon;timestamp;pressure;altitude;pressure_sealevel;temperature;humidity
15604;BME280;7902;49.042;9.092;2023-05-28T00:02:19;99268.00;;;19.95;42.46
15604;BME280;7902;49.042;9.092;2023-05-28T00:04:45;99271.16;;;19.98;42.18
15604;BME280;7902;49.042;9.092;2023-05-28T00:07:10;99269.84;;;19.94;43.77
15604;BME280;7902;49.042;9.092;2023-05-28T00:09:39;99264.66;;;19.93;43.69
15604;BME280;7902;49.042;9.092;2023-05-28T00:12:06;99265.16;;;19.88;43.28
15604;BME280;7902;49.042;9.092;2023-05-28T00:14:33;99263.63;;;19.78;43.28
15604;BME280;7902;49.042;9.092;2023-05-28T00:16:59;99266.31;;;19.78;43.36
15604;BME280;7902;49.042;9.092;2023-05-28T00:19:26;99260.81;;;19.79;43.56
15604;BME280;7902;49.042;9.092;2023-05-28T00:21:51;99263.00;;;19.76;42.78
15604;BME280;7902;49.042;9.092;2023-05-28T00:24:17;99255.16;;;19.74;43.53
15604;BME280;7902;49.042;9.092;2023-05-28T00:26:43;99257.31;;;19.70;43.77
15604;BME280;7902;49.042;9.092;2023-05-28T00:29:09;99257.47;;;19.61;44.31
15604;BME280;7902;49.042;9.092;2023-05-28T00:31:35;99251.66;;;19.57;44.19
15604;BME280;7902;49.042;9.092;2023-05-28T00:34:01;99247.47;;;19.55;44.35
15604;BME280;7902;49.042;9.092;2023-05-28T00:36:27;99249.31;;;19.54;44.38
15604;BME280;7902;49.042;9.092;2023-05-28T00:38:53;99251.97;;;19.46;44.52
15604;BME280;7902;49.042;9.092;2023-05-28T00:41:22;99246.78;;;19.45;44.82
15604;BME280;7902;49.042;9.092;2023-05-28T00:43:48;99246.63;;;19.46;44.11
15604;BME280;7902;49.042;9.092;2023-05-28T00:46:17;99247.44;;;19.39;44.34
15604;BME280;7902;49.042;9.092;2023-05-28T00:48:43;99239.44;;;19.39;44.41
15604;BME280;7902;49.042;9.092;2023-05-28T00:51:11;99253.06;;;19.36;44.87
15604;BME280;7902;49.042;9.092;2023-05-28T00:53:38;99250.59;;;19.34;44.32
15604;BME280;7902;49.042;9.092;2023-05-28T00:56:04;99252.91;;;19.29;44.73
15604;BME280;7902;49.042;9.092;2023-05-28T00:58:31;99247.72;;;19.19;44.88
15604;BME280;7902;49.042;9.092;2023-05-28T01:01:01;99247.56;;;19.21;45.36
15604;BME280;7902;49.042;9.092;2023-05-28T01:03:27;99244.19;;;19.11;45.46
15604;BME280;7902;49.042;9.092;2023-05-28T01:05:53;99246.34;;;19.07;45.47
15604;BME280;7902;49.042;9.092;2023-05-28T01:08:19;99240.69;;;19.10;45.42
15604;BME280;7902;49.042;9.092;2023-05-28T01:10:46;99245.69;;;19.05;45.46
15604;BME280;7902;49.042;9.092;2023-05-28T01:13:12;99245.53;;;19.07;45.12
15604;BME280;7902;49.042;9.092;2023-05-28T01:15:38;99230.34;;;18.99;45.61
15604;BME280;7902;49.042;9.092;2023-05-28T01:18:06;99244.28;;;18.93;45.90
15604;BME280;7902;49.042;9.092;2023-05-28T01:20:32;99237.97;;;18.94;45.50
15604;BME280;7902;49.042;9.092;2023-05-28T01:23:02;99247.13;;;18.92;45.77
15604;BME280;7902;49.042;9.092;2023-05-28T01:25:33;99243.13;;;18.88;46.16
15604;BME280;7902;49.042;9.092;2023-05-28T01:28:00;99250.38;;;18.77;46.19
15604;BME280;7902;49.042;9.092;2023-05-28T01:30:29;99234.56;;;18.76;45.97
15604;BME280;7902;49.042;9.092;2023-05-28T01:32:55;99231.78;;;18.77;46.65
15604;BME280;7902;49.042;9.092;2023-05-28T01:35:21;99240.03;;;18.66;46.74
15604;BME280;7902;49.042;9.092;2023-05-28T01:37:49;99239.84;;;18.60;46.83
15604;BME280;7902;49.042;9.092;2023-05-28T01:40:17;99235.66;;;18.57;46.93
15604;BME280;7902;49.042;9.092;2023-05-28T01:42:45;99244.22;;;18.51;46.66
15604;BME280;7902;49.042;9.092;2023-05-28T01:45:12;99234.91;;;18.47;47.33
15604;BME280;7902;49.042;9.092;2023-05-28T01:47:38;99237.41;;;18.49;47.13
15604;BME280;7902;49.042;9.092;2023-05-28T01:50:06;99233.22;;;18.46;47.15
15604;BME280;7902;49.042;9.092;2023-05-28T01:52:33;99233.91;;;18.48;46.94
15604;BME280;7902;49.042;9.092;2023-05-28T01:54:58;99236.22;;;18.43;47.31
15604;BME280;7902;49.042;9.092;2023-05-28T01:57:24;99234.16;;;18.37;47.12
15604;BME280;7902;49.042;9.092;2023-05-28T01:59:50;99238.13;;;18.33;47.23
15604;BME280;7902;49.042;9.092;2023-05-28T02:02:16;99237.63;;;18.29;47.43
15604;BME280;7902;49.042;9.092;2023-05-28T02:04:42;99234.81;;;18.31;47.43
15604;BME280;7902;49.042;9.092;2023-05-28T02:07:08;99239.69;;;18.18;47.76
15604;BME280;7902;49.042;9.092;2023-05-28T02:09:34;99236.56;;;18.22;47.54
15604;BME280;7902;49.042;9.092;2023-05-28T02:12:00;99228.97;;;18.27;47.49
15604;BME280;7902;49.042;9.092;2023-05-28T02:14:29;99234.28;;;18.27;47.86
15604;BME280;7902;49.042;9.092;2023-05-28T02:16:55;99228.78;;;18.21;47.90
15604;BME280;7902;49.042;9.092;2023-05-28T02:19:21;99229.03;;;18.10;48.11
15604;BME280;7902;49.042;9.092;2023-05-28T02:21:46;99228.72;;;18.13;48.02
15604;BME280;7902;49.042;9.092;2023-05-28T02:24:12;99228.03;;;18.11;47.91
15604;BME280;7902;49.042;9.092;2023-05-28T02:26:38;99219.94;;;17.94;48.13
15604;BME280;7902;49.042;9.092;2023-05-28T02:29:04;99224.59;;;17.92;48.24
15604;BME280;7902;49.042;9.092;2023-05-28T02:31:31;99223.44;;;17.95;48.01
15604;BME280;7902;49.042;9.092;2023-05-28T02:33:57;99220.63;;;17.96;48.31
15604;BME280;7902;49.042;9.092;2023-05-28T02:36:23;99221.25;;;17.90;48.56
15604;BME280;7902;49.042;9.092;2023-05-28T02:38:49;99220.78;;;17.95;47.95
15604;BME280;7902;49.042;9.092;2023-05-28T02:41:15;99222.97;;;17.99;47.67
15604;BME280;7902;49.042;9.092;2023-05-28T02:43:42;99220.94;;;17.93;47.98
15604;BME280;7902;49.042;9.092;2023-05-28T02:46:09;99223.28;;;17.96;48.40
15604;BME280;7902;49.042;9.092;2023-05-28T02:48:34;99221.09;;;17.92;48.54
15604;BME280;7902;49.042;9.092;2023-05-28T02:51:02;99216.44;;;17.94;48.60
15604;BME280;7902;49.042;9.092;2023-05-28T02:53:30;99224.88;;;17.89;48.32
15604;BME280;7902;49.042;9.092;2023-05-28T02:55:59;99218.38;;;17.84;48.73
15604;BME280;7902;49.042;9.092;2023-05-28T02:58:25;99216.56;;;17.84;48.49
15604;BME280;7902;49.042;9.092;2023-05-28T03:00:51;99219.97;;;17.77;48.64
15604;BME280;7902;49.042;9.092;2023-05-28T03:03:16;99215.81;;;17.74;48.87
15604;BME280;7902;49.042;9.092;2023-05-28T03:05:42;99221.59;;;17.70;48.84
15604;BME280;7902;49.042;9.092;2023-05-28T03:08:08;99222.44;;;17.70;49.08
15604;BME280;7902;49.042;9.092;2023-05-28T03:10:34;99220.13;;;17.75;48.49
15604;BME280;7902;49.042;9.092;2023-05-28T03:13:00;99225.50;;;17.66;48.70
15604;BME280;7902;49.042;9.092;2023-05-28T03:15:26;99226.66;;;17.63;49.01
15604;BME280;7902;49.042;9.092;2023-05-28T03:17:53;99226.34;;;17.66;48.89
15604;BME280;7902;49.042;9.092;2023-05-28T03:20:19;99223.50;;;17.60;49.05
15604;BME280;7902;49.042;9.092;2023-05-28T03:22:47;99228.53;;;17.53;49.15
15604;BME280;7902;49.042;9.092;2023-05-28T03:25:14;99228.84;;;17.50;49.29
15604;BME280;7902;49.042;9.092;2023-05-28T03:27:40;99230.03;;;17.38;49.52
15604;BME280;7902;49.042;9.092;2023-05-28T03:30:06;99219.41;;;17.38;49.56
15604;BME280;7902;49.042;9.092;2023-05-28T03:32:34;99228.38;;;17.37;49.42
15604;BME280;7902;49.042;9.092;2023-05-28T03:35:00;99224.34;;;17.33;49.73
15604;BME280;7902;49.042;9.092;2023-05-28T03:37:26;99222.84;;;17.30;49.51
15604;BME280;7902;49.042;9.092;2023-05-28T03:39:53;99225.19;;;17.33;49.66
15604;BME280;7902;49.042;9.092;2023-05-28T03:42:19;99224.34;;;17.33;49.65
15604;BME280;7902;49.042;9.092;2023-05-28T03:44:45;99223.53;;;17.32;49.38
15604;BME280;7902;49.042;9.092;2023-05-28T03:47:11;99212.38;;;17.29;49.89
15604;BME280;7902;49.042;9.092;2023-05-28T03:49:38;99219.66;;;17.27;49.69
15604;BME280;7902;49.042;9.092;2023-05-28T03:52:04;99218.75;;;17.18;49.86
15604;BME280;7902;49.042;9.092;2023-05-28T03:54:30;99221.84;;;17.14;50.19
15604;BME280;7902;49.042;9.092;2023-05-28T03:56:56;99221.75;;;17.05;50.06
15604;BME280;7902;49.042;9.092;2023-05-28T03:59:22;99229.09;;;17.11;50.09
15604;BME280;7902;49.042;9.092;2023-05-28T04:01:48;99231.50;;;17.05;50.06
15604;BME280;7902;49.042;9.092;2023-05-28T04:04:14;99222.13;;;17.10;49.98
15604;BME280;7902;49.042;9.092;2023-05-28T04:06:41;99217.13;;;17.07;50.14
15604;BME280;7902;49.042;9.092;2023-05-28T04:09:08;99225.09;;;17.07;50.25
15604;BME280;7902;49.042;9.092;2023-05-28T04:11:34;99225.09;;;17.07;50.15
15604;BME280;7902;49.042;9.092;2023-05-28T04:14:03;99221.91;;;17.04;50.49
15604;BME280;7902;49.042;9.092;2023-05-28T04:16:29;99225.75;;;17.09;50.72
15604;BME280;7902;49.042;9.092;2023-05-28T04:18:56;99216.69;;;17.12;50.61
15604;BME280;7902;49.042;9.092;2023-05-28T04:21:23;99225.75;;;17.09;50.74
15604;BME280;7902;49.042;9.092;2023-05-28T04:23:49;99217.53;;;17.13;50.60
15604;BME280;7902;49.042;9.092;2023-05-28T04:26:15;99220.16;;;17.13;50.30
15604;BME280;7902;49.042;9.092;2023-05-28T04:28:42;99223.50;;;17.15;50.71
15604;BME280;7902;49.042;9.092;2023-05-28T04:31:07;99217.53;;;17.13;50.35
15604;BME280;7902;49.042;9.092;2023-05-28T04:33:33;99218.50;;;17.11;50.66
15604;BME280;7902;49.042;9.092;2023-05-28T04:36:00;99215.91;;;17.20;50.44
15604;BME280;7902;49.042;9.092;2023-05-28T04:38:27;99230.16;;;17.19;50.06
15604;BME280;7902;49.042;9.092;2023-05-28T04:40:59;99231.84;;;17.20;50.39
15604;BME280;7902;49.042;9.092;2023-05-28T04:43:31;99243.75;;;17.16;50.34
15604;BME280;7902;49.042;9.092;2023-05-28T04:45:59;99246.25;;;17.17;50.18
15604;BME280;7902;49.042;9.092;2023-05-28T04:48:26;99247.63;;;17.21;50.50
15604;BME280;7902;49.042;9.092;2023-05-28T04:50:53;99235.19;;;17.22;50.61
15604;BME280;7902;49.042;9.092;2023-05-28T04:53:19;99235.47;;;17.19;50.30
15604;BME280;7902;49.042;9.092;2023-05-28T04:55:46;99240.50;;;17.22;50.59
15604;BME280;7902;49.042;9.092;2023-05-28T04:58:11;99245.34;;;17.26;50.54
15604;BME280;7902;49.042;9.092;2023-05-28T05:00:37;99240.44;;;17.31;50.52
15604;BME280;7902;49.042;9.092;2023-05-28T05:03:03;99239.28;;;17.34;50.79
15604;BME280;7902;49.042;9.092;2023-05-28T05:05:29;99241.50;;;17.38;50.28
15604;BME280;7902;49.042;9.092;2023-05-28T05:07:55;99244.00;;;17.40;50.19
15604;BME280;7902;49.042;9.092;2023-05-28T05:10:22;99247.94;;;17.36;50.32
15604;BME280;7902;49.042;9.092;2023-05-28T05:12:48;99243.75;;;17.33;50.34
15604;BME280;7902;49.042;9.092;2023-05-28T05:15:14;99251.59;;;17.35;50.41
15604;BME280;7902;49.042;9.092;2023-05-28T05:17:40;99246.66;;;17.40;50.39
15604;BME280;7902;49.042;9.092;2023-05-28T05:20:07;99250.69;;;17.44;50.32
15604;BME280;7902;49.042;9.092;2023-05-28T05:22:34;99250.91;;;17.50;50.60
15604;BME280;7902;49.042;9.092;2023-05-28T05:25:00;99247.81;;;17.55;50.31
15604;BME280;7902;49.042;9.092;2023-05-28T05:27:26;99241.59;;;17.46;50.30
15604;BME280;7902;49.042;9.092;2023-05-28T05:29:53;99248.72;;;17.46;50.31
15604;BME280;7902;49.042;9.092;2023-05-28T05:32:19;99246.44;;;17.51;50.38
15604;BME280;7902;49.042;9.092;2023-05-28T05:34:45;99244.47;;;17.53;50.37
15604;BME280;7902;49.042;9.092;2023-05-28T05:37:11;99243.06;;;17.59;50.29
15604;BME280;7902;49.042;9.092;2023-05-28T05:39:37;99250.88;;;17.60;50.28
15604;BME280;7902;49.042;9.092;2023-05-28T05:42:03;99252.25;;;17.64;50.40
15604;BME280;7902;49.042;9.092;2023-05-28T05:44:29;99256.72;;;17.64;50.25
15604;BME280;7902;49.042;9.092;2023-05-28T05:46:55;99262.94;;;17.72;50.28
15604;BME280;7902;49.042;9.092;2023-05-28T05:49:20;99261.03;;;17.82;50.31
15604;BME280;7902;49.042;9.092;2023-05-28T05:51:46;99259.59;;;17.88;50.37
15604;BME280;7902;49.042;9.092;2023-05-28T05:54:12;99256.56;;;17.83;50.14
15604;BME280;7902;49.042;9.092;2023-05-28T05:56:38;99259.06;;;17.84;50.36
15604;BME280;7902;49.042;9.092;2023-05-28T05:59:04;99259.88;;;17.85;50.21
15604;BME280;7902;49.042;9.092;2023-05-28T06:01:31;99263.28;;;17.95;50.21
15604;BME280;7902;49.042;9.092;2023-05-28T06:03:57;99251.28;;;17.91;50.63
15604;BME280;7902;49.042;9.092;2023-05-28T06:06:23;99261.47;;;17.95;50.59
15604;BME280;7902;49.042;9.092;2023-05-28T06:08:49;99259.56;;;18.06;51.14
15604;BME280;7902;49.042;9.092;2023-05-28T06:11:14;99251.44;;;18.07;50.46
15604;BME280;7902;49.042;9.092;2023-05-28T06:13:41;99253.16;;;18.16;50.87
15604;BME280;7902;49.042;9.092;2023-05-28T06:16:07;99259.50;;;18.23;50.44
15604;BME280;7902;49.042;9.092;2023-05-28T06:18:33;99258.75;;;18.31;50.57
15604;BME280;7902;49.042;9.092;2023-05-28T06:20:59;99265.94;;;18.38;50.18
15604;BME280;7902;49.042;9.092;2023-05-28T06:23:25;99258.47;;;18.42;50.27
15604;BME280;7902;49.042;9.092;2023-05-28T06:25:51;99264.84;;;18.49;49.90
15604;BME280;7902;49.042;9.092;2023-05-28T06:28:17;99259.19;;;18.52;50.30
15604;BME280;7902;49.042;9.092;2023-05-28T06:30:43;99259.75;;;18.56;50.32
15604;BME280;7902;49.042;9.092;2023-05-28T06:33:09;99263.34;;;18.72;49.76
15604;BME280;7902;49.042;9.092;2023-05-28T06:35:36;99258.00;;;18.72;49.97
15604;BME280;7902;49.042;9.092;2023-05-28T06:38:02;99263.25;;;18.90;49.18
15604;BME280;7902;49.042;9.092;2023-05-28T06:40:27;99253.06;;;18.85;49.98
15604;BME280;7902;49.042;9.092;2023-05-28T06:42:53;99254.75;;;18.87;49.57
15604;BME280;7902;49.042;9.092;2023-05-28T06:45:19;99258.44;;;18.94;49.58
15604;BME280;7902;49.042;9.092;2023-05-28T06:47:47;99256.81;;;19.09;49.30
15604;BME280;7902;49.042;9.092;2023-05-28T06:50:13;99258.16;;;19.05;49.56
15604;BME280;7902;49.042;9.092;2023-05-28T06:52:39;99261.19;;;19.18;48.91
15604;BME280;7902;49.042;9.092;2023-05-28T06:55:05;99261.81;;;19.12;49.66
15604;BME280;7902;49.042;9.092;2023-05-28T06:57:33;99269.16;;;19.10;49.87
15604;BME280;7902;49.042;9.092;2023-05-28T06:59:59;99265.81;;;19.08;49.60
15604;BME280;7902;49.042;9.092;2023-05-28T07:02:25;99268.38;;;19.25;49.18
15604;BME280;7902;49.042;9.092;2023-05-28T07:04:51;99263.84;;;19.26;49.86
15604;BME280;7902;49.042;9.092;2023-05-28T07:07:17;99266.91;;;19.39;49.03
15604;BME280;7902;49.042;9.092;2023-05-28T07:09:43;99272.88;;;19.41;49.00
15604;BME280;7902;49.042;9.092;2023-05-28T07:12:09;99261.28;;;19.50;49.45
15604;BME280;7902;49.042;9.092;2023-05-28T07:14:36;99268.28;;;19.51;49.13
15604;BME280;7902;49.042;9.092;2023-05-28T07:17:02;99262.97;;;19.59;48.44
15604;BME280;7902;49.042;9.092;2023-05-28T07:19:28;99270.66;;;19.70;47.88
15604;BME280;7902;49.042;9.092;2023-05-28T07:21:53;99260.66;;;19.81;47.68
15604;BME280;7902;49.042;9.092;2023-05-28T07:24:19;99268.81;;;19.79;47.86
15604;BME280;7902;49.042;9.092;2023-05-28T07:26:45;99263.47;;;19.87;47.71
15604;BME280;7902;49.042;9.092;2023-05-28T07:29:11;99258.34;;;19.94;48.00
15604;BME280;7902;49.042;9.092;2023-05-28T07:31:40;99257.81;;;19.98;47.62
15604;BME280;7902;49.042;9.092;2023-05-28T07:34:06;99265.50;;;19.93;47.93
15604;BME280;7902;49.042;9.092;2023-05-28T07:36:32;99263.97;;;20.07;48.04
15604;BME280;7902;49.042;9.092;2023-05-28T07:38:58;99253.31;;;20.07;48.46
15604;BME280;7902;49.042;9.092;2023-05-28T07:41:24;99261.16;;;20.16;47.85
15604;BME280;7902;49.042;9.092;2023-05-28T07:43:51;99258.97;;;20.20;47.92
15604;BME280;7902;49.042;9.092;2023-05-28T07:46:16;99252.00;;;20.19;48.26
15604;BME280;7902;49.042;9.092;2023-05-28T07:48:43;99261.34;;;20.31;48.28
15604;BME280;7902;49.042;9.092;2023-05-28T07:51:09;99263.13;;;20.39;48.38
15604;BME280;7902;49.042;9.092;2023-05-28T07:53:36;99261.97;;;20.41;48.21
15604;BME280;7902;49.042;9.092;2023-05-28T07:56:01;99258.47;;;20.49;47.57
15604;BME280;7902;49.042;9.092;2023-05-28T07:58:28;99249.94;;;20.53;47.95
15604;BME280;7902;49.042;9.092;2023-05-28T08:00:53;99260.13;;;20.50;47.29
15604;BME280;7902;49.042;9.092;2023-05-28T08:03:19;99258.97;;;20.52;47.61
15604;BME280;7902;49.042;9.092;2023-05-28T08:05:45;99254.94;;;20.56;47.00
15604;BME280;7902;49.042;9.092;2023-05-28T08:08:11;99255.09;;;20.63;47.13
15604;BME280;7902;49.042;9.092;2023-05-28T08:10:37;99258.28;;;20.67;46.79
15604;BME280;7902;49.042;9.092;2023-05-28T08:13:03;99263.41;;;20.68;47.02
15604;BME280;7902;49.042;9.092;2023-05-28T08:15:29;99260.25;;;20.65;46.90
15604;BME280;7902;49.042;9.092;2023-05-28T08:17:55;99251.91;;;20.68;46.67
15604;BME280;7902;49.042;9.092;2023-05-28T08:20:21;99253.22;;;20.80;46.24
15604;BME280;7902;49.042;9.092;2023-05-28T08:22:48;99247.47;;;20.91;45.81
15604;BME280;7902;49.042;9.092;2023-05-28T08:25:14;99258.50;;;20.88;45.83
15604;BME280;7902;49.042;9.092;2023-05-28T08:27:40;99251.19;;;20.90;45.86
15604;BME280;7902;49.042;9.092;2023-05-28T08:30:06;99245.31;;;20.94;45.84
15604;BME280;7902;49.042;9.092;2023-05-28T08:32:33;99241.19;;;20.84;45.88
15604;BME280;7902;49.042;9.092;2023-05-28T08:34:59;99242.13;;;20.99;45.99
15604;BME280;7902;49.042;9.092;2023-05-28T08:37:25;99237.78;;;20.98;45.45
15604;BME280;7902;49.042;9.092;2023-05-28T08:39:51;99228.47;;;20.94;45.38
15604;BME280;7902;49.042;9.092;2023-05-28T08:42:17;99230.72;;;21.05;45.28
15604;BME280;7902;49.042;9.092;2023-05-28T08:44:44;99237.44;;;21.01;45.28
15604;BME280;7902;49.042;9.092;2023-05-28T08:47:10;99228.56;;;21.09;45.33
15604;BME280;7902;49.042;9.092;2023-05-28T08:49:38;99227.72;;;21.08;45.33
15604;BME280;7902;49.042;9.092;2023-05-28T08:52:08;99230.38;;;21.16;45.20
15604;BME280;7902;49.042;9.092;2023-05-28T08:54:37;99221.69;;;21.14;44.96
15604;BME280;7902;49.042;9.092;2023-05-28T08:57:04;99216.19;;;21.16;45.44
15604;BME280;7902;49.042;9.092;2023-05-28T08:59:31;99220.06;;;21.13;45.51
15604;BME280;7902;49.042;9.092;2023-05-28T09:01:57;99213.19;;;21.19;44.12
15604;BME280;7902;49.042;9.092;2023-05-28T09:04:23;99218.84;;;21.16;44.79
15604;BME280;7902;49.042;9.092;2023-05-28T09:06:49;99216.34;;;21.22;44.87
15604;BME280;7902;49.042;9.092;2023-05-28T09:09:17;99209.63;;;21.26;44.81
15604;BME280;7902;49.042;9.092;2023-05-28T09:11:43;99208.97;;;21.24;45.23
15604;BME280;7902;49.042;9.092;2023-05-28T09:14:10;99208.94;;;21.32;44.74
15604;BME280;7902;49.042;9.092;2023-05-28T09:16:41;99197.50;;;21.38;44.52
15604;BME280;7902;49.042;9.092;2023-05-28T09:19:08;99196.03;;;21.36;44.76
15604;BME280;7902;49.042;9.092;2023-05-28T09:21:34;99196.81;;;21.44;45.01
15604;BME280;7902;49.042;9.092;2023-05-28T09:24:05;99194.50;;;21.41;45.26
15604;BME280;7902;49.042;9.092;2023-05-28T09:26:32;99195.88;;;21.37;45.10
15604;BME280;7902;49.042;9.092;2023-05-28T09:28:59;99186.34;;;21.58;43.95
15604;BME280;7902;49.042;9.092;2023-05-28T09:31:29;99190.69;;;21.59;44.29
15604;BME280;7902;49.042;9.092;2023-05-28T09:33:59;99188.84;;;21.59;44.26
15604;BME280;7902;49.042;9.092;2023-05-28T09:36:28;99180.47;;;21.62;44.53
15604;BME280;7902;49.042;9.092;2023-05-28T09:38:55;99176.31;;;21.60;44.15
15604;BME280;7902;49.042;9.092;2023-05-28T09:41:26;99181.59;;;21.68;44.56
15604;BME280;7902;49.042;9.092;2023-05-28T09:44:00;99182.81;;;21.65;44.56
15604;BME280;7902;49.042;9.092;2023-05-28T09:46:35;99181.59;;;21.68;44.75
15604;BME280;7902;49.042;9.092;2023-05-28T09:49:02;99187.22;;;21.73;44.75
15604;BME280;7902;49.042;9.092;2023-05-28T09:51:30;99190.28;;;21.70;45.41
15604;BME280;7902;49.042;9.092;2023-05-28T09:53:59;99189.19;;;21.79;44.65
15604;BME280;7902;49.042;9.092;2023-05-28T09:56:28;99186.31;;;21.80;44.12
15604;BME280;7902;49.042;9.092;2023-05-28T09:59:06;99182.84;;;21.80;44.32
15604;BME280;7902;49.042;9.092;2023-05-28T10:04:17;99186.69;;;22.00;44.25
15604;BME280;7902;49.042;9.092;2023-05-28T10:06:44;99186.69;;;22.00;45.05
15604;BME280;7902;49.042;9.092;2023-05-28T10:09:14;99182.38;;;22.28;44.07
15604;BME280;7902;49.042;9.092;2023-05-28T10:11:50;99186.91;;;22.43;43.81
15604;BME280;7902;49.042;9.092;2023-05-28T10:14:17;99181.66;;;22.64;43.44
15604;BME280;7902;49.042;9.092;2023-05-28T10:16:43;99182.72;;;22.69;43.26
15604;BME280;7902;49.042;9.092;2023-05-28T10:19:09;99181.19;;;22.75;43.27
15604;BME280;7902;49.042;9.092;2023-05-28T10:21:36;99175.19;;;22.88;42.72
15604;BME280;7902;49.042;9.092;2023-05-28T10:24:03;99178.91;;;23.08;42.45
15604;BME280;7902;49.042;9.092;2023-05-28T10:26:30;99178.13;;;22.93;42.98
15604;BME280;7902;49.042;9.092;2023-05-28T10:28:56;99184.13;;;23.31;41.74
15604;BME280;7902;49.042;9.092;2023-05-28T10:31:22;99176.16;;;23.01;43.02
15604;BME280;7902;49.042;9.092;2023-05-28T10:33:49;99170.41;;;23.04;43.12
15604;BME280;7902;49.042;9.092;2023-05-28T10:36:16;99171.47;;;22.89;43.81
15604;BME280;7902;49.042;9.092;2023-05-28T10:38:43;99166.34;;;22.72;43.88
15604;BME280;7902;49.042;9.092;2023-05-28T10:41:10;99174.44;;;22.64;44.12
15604;BME280;7902;49.042;9.092;2023-05-28T10:46:09;99168.16;;;22.57;44.12
15604;BME280;7902;49.042;9.092;2023-05-28T10:48:42;99170.13;;;22.78;43.19
15604;BME280;7902;49.042;9.092;2023-05-28T10:54:39;99163.09;;;23.13;42.90
15604;BME280;7902;49.042;9.092;2023-05-28T10:59:43;99161.59;;;22.89;43.47
15604;BME280;7902;49.042;9.092;2023-05-28T11:02:10;99151.78;;;22.96;42.77
15604;BME280;7902;49.042;9.092;2023-05-28T11:04:36;99158.81;;;22.97;43.39
15604;BME280;7902;49.042;9.092;2023-05-28T11:07:02;99147.97;;;23.05;43.30
15604;BME280;7902;49.042;9.092;2023-05-28T11:09:29;99149.75;;;22.98;42.98
15604;BME280;7902;49.042;9.092;2023-05-28T11:11:58;99142.63;;;23.05;43.12
15604;BME280;7902;49.042;9.092;2023-05-28T11:14:29;99146.75;;;23.08;43.17
15604;BME280;7902;49.042;9.092;2023-05-28T11:16:55;99144.56;;;23.11;43.03
15604;BME280;7902;49.042;9.092;2023-05-28T11:19:21;99145.31;;;23.27;42.58
15604;BME280;7902;49.042;9.092;2023-05-28T11:21:54;99138.31;;;23.26;42.81
15604;BME280;7902;49.042;9.092;2023-05-28T11:24:21;99137.31;;;23.12;43.17
15604;BME280;7902;49.042;9.092;2023-05-28T11:26:47;99141.22;;;23.09;43.76
15604;BME280;7902;49.042;9.092;2023-05-28T11:29:15;99134.19;;;23.08;43.22
15604;BME280;7902;49.042;9.092;2023-05-28T11:31:41;99140.22;;;23.10;43.67
15604;BME280;7902;49.042;9.092;2023-05-28T11:34:08;99133.06;;;23.17;43.11
15604;BME280;7902;49.042;9.092;2023-05-28T11:36:41;99135.47;;;23.12;43.45
15604;BME280;7902;49.042;9.092;2023-05-28T11:39:08;99130.78;;;23.14;43.06
15604;BME280;7902;49.042;9.092;2023-05-28T11:41:34;99128.09;;;23.14;43.32
15604;BME280;7902;49.042;9.092;2023-05-28T11:44:00;99130.59;;;23.16;43.10
15604;BME280;7902;49.042;9.092;2023-05-28T11:46:26;99133.53;;;23.21;43.05
15604;BME280;7902;49.042;9.092;2023-05-28T11:48:52;99133.97;;;23.25;42.92
15604;BME280;7902;49.042;9.092;2023-05-28T11:51:21;99121.59;;;23.24;43.09
15604;BME280;7902;49.042;9.092;2023-05-28T11:53:47;99124.66;;;23.21;43.45
15604;BME280;7902;49.042;9.092;2023-05-28T11:56:13;99112.13;;;23.28;43.06
15604;BME280;7902;49.042;9.092;2023-05-28T11:58:46;99123.13;;;23.33;43.02
15604;BME280;7902;49.042;9.092;2023-05-28T12:01:14;99112.00;;;23.36;43.02
15604;BME280;7902;49.042;9.092;2023-05-28T12:03:42;99122.41;;;23.24;43.00
15604;BME280;7902;49.042;9.092;2023-05-28T12:06:08;99123.03;;;23.26;43.25
15604;BME280;7902;49.042;9.092;2023-05-28T12:08:34;99117.13;;;23.31;43.15
15604;BME280;7902;49.042;9.092;2023-05-28T12:11:01;99117.59;;;23.41;43.07
15604;BME280;7902;49.042;9.092;2023-05-28T12:13:34;99116.91;;;23.32;43.10
15604;BME280;7902;49.042;9.092;2023-05-28T12:18:32;99103.34;;;23.55;42.74
15604;BME280;7902;49.042;9.092;2023-05-28T12:20:58;99113.31;;;23.40;43.08
15604;BME280;7902;49.042;9.092;2023-05-28T12:23:24;99109.16;;;23.58;42.87
15604;BME280;7902;49.042;9.092;2023-05-28T12:25:52;99098.56;;;23.50;42.82
15604;BME280;7902;49.042;9.092;2023-05-28T12:28:22;99107.09;;;23.60;42.55
15604;BME280;7902;49.042;9.092;2023-05-28T12:30:50;99105.06;;;23.63;42.53
15604;BME280;7902;49.042;9.092;2023-05-28T12:33:16;99104.22;;;23.62;42.76
15604;BME280;7902;49.042;9.092;2023-05-28T12:35:42;99096.72;;;23.79;42.02
15604;BME280;7902;49.042;9.092;2023-05-28T12:38:09;99096.13;;;23.83;42.13
15604;BME280;7902;49.042;9.092;2023-05-28T12:40:34;99091.84;;;23.61;42.52
15604;BME280;7902;49.042;9.092;2023-05-28T12:43:00;99094.84;;;23.73;43.02
15604;BME280;7902;49.042;9.092;2023-05-28T12:45:27;99094.63;;;23.74;42.61
15604;BME280;7902;49.042;9.092;2023-05-28T12:47:53;99090.28;;;23.73;42.66
15604;BME280;7902;49.042;9.092;2023-05-28T12:50:20;99089.50;;;23.79;42.84
15604;BME280;7902;49.042;9.092;2023-05-28T12:52:46;99085.63;;;23.82;42.55
15604;BME280;7902;49.042;9.092;2023-05-28T12:55:12;99086.22;;;23.84;42.65
15604;BME280;7902;49.042;9.092;2023-05-28T12:57:37;99084.66;;;23.96;42.70
15604;BME280;7902;49.042;9.092;2023-05-28T13:00:05;99083.00;;;24.23;41.04
15604;BME280;7902;49.042;9.092;2023-05-28T13:02:33;99083.88;;;24.36;41.05
15604;BME280;7902;49.042;9.092;2023-05-28T13:04:59;99083.94;;;24.49;41.08
15604;BME280;7902;49.042;9.092;2023-05-28T13:07:25;99082.44;;;24.34;41.68
15604;BME280;7902;49.042;9.092;2023-05-28T13:09:51;99076.19;;;24.27;41.31
15604;BME280;7902;49.042;9.092;2023-05-28T13:12:17;99076.38;;;24.25;42.30
15604;BME280;7902;49.042;9.092;2023-05-28T13:14:43;99070.41;;;24.23;42.33
15604;BME280;7902;49.042;9.092;2023-05-28T13:17:09;99077.75;;;24.15;42.14
15604;BME280;7902;49.042;9.092;2023-05-28T13:19:35;99069.97;;;24.20;42.04
15604;BME280;7902;49.042;9.092;2023-05-28T13:22:01;99065.63;;;24.19;42.56